createdAt,value
2023-09-23T00:02:12.616Z,13.60
2023-09-23T00:05:16.116Z,13.61
2023-09-23T00:08:19.484Z,13.56
2023-09-23T00:11:21.294Z,13.60
2023-09-23T00:14:23.557Z,13.58
2023-09-23T00:17:29.526Z,13.67
2023-09-23T00:20:31.464Z,13.69
2023-09-23T00:23:34.992Z,13.64
2023-09-23T00:26:37.782Z,13.68
2023-09-23T00:29:39.475Z,13.70
2023-09-23T00:32:41.586Z,13.61
2023-09-23T00:35:44.974Z,13.63
2023-09-23T00:38:48.349Z,13.66
2023-09-23T00:41:50.071Z,13.62
2023-09-23T00:44:52.095Z,13.62
2023-09-23T00:47:54.382Z,13.67
2023-09-23T00:50:56.154Z,13.64
2023-09-23T00:54:02.055Z,13.65
2023-09-23T00:57:04.232Z,13.59
2023-09-23T01:00:08.070Z,13.53
2023-09-23T01:03:11.216Z,13.47
2023-09-23T01:06:13.094Z,13.39
2023-09-23T01:09:17.799Z,13.44
2023-09-23T01:12:19.504Z,13.43
2023-09-23T01:15:21.601Z,13.39
2023-09-23T01:18:25.280Z,13.44
2023-09-23T01:21:27.163Z,13.48
2023-09-23T01:24:31.537Z,13.49
2023-09-23T01:27:34.312Z,13.47
2023-09-23T01:30:36.040Z,13.50
2023-09-23T01:33:39.592Z,13.55
2023-09-23T01:36:41.660Z,13.59
2023-09-23T01:39:45.346Z,13.58
2023-09-23T01:42:48.784Z,13.62
2023-09-23T01:45:52.614Z,13.49
2023-09-23T01:48:54.844Z,13.50
2023-09-23T01:51:56.580Z,13.47
2023-09-23T01:54:59.988Z,13.51
2023-09-23T01:58:01.811Z,13.55
2023-09-23T02:01:06.606Z,13.52
2023-09-23T02:04:08.900Z,13.50
2023-09-23T02:07:14.427Z,13.40
2023-09-23T02:10:18.520Z,13.22
2023-09-23T02:13:20.562Z,13.23
2023-09-23T02:16:22.392Z,12.90
2023-09-23T02:19:26.257Z,12.94
2023-09-23T02:22:28.077Z,13.03
2023-09-23T02:25:31.486Z,13.07
2023-09-23T02:28:33.457Z,13.14
2023-09-23T02:31:35.187Z,13.23
2023-09-23T02:34:37.406Z,13.28
2023-09-23T02:37:40.191Z,13.32
2023-09-23T02:40:43.437Z,13.35
2023-09-23T02:43:46.918Z,13.38
2023-09-23T02:46:51.756Z,13.42
2023-09-23T02:49:55.749Z,13.42
2023-09-23T02:52:58.076Z,13.43
2023-09-23T02:56:17.417Z,13.38
2023-09-23T02:59:19.436Z,13.24
2023-09-23T03:02:22.401Z,13.18
2023-09-23T03:05:25.568Z,13.06
2023-09-23T03:08:27.698Z,12.89
2023-09-23T03:11:35.445Z,12.83
2023-09-23T03:14:37.439Z,12.65
2023-09-23T03:17:42.215Z,12.56
2023-09-23T03:20:44.130Z,12.49
2023-09-23T03:23:47.453Z,12.59
2023-09-23T03:26:52.064Z,12.59
2023-09-23T03:29:54.039Z,12.62
2023-09-23T03:32:57.832Z,12.70
2023-09-23T03:36:00.037Z,12.74
2023-09-23T03:39:01.971Z,12.72
2023-09-23T03:42:08.004Z,12.61
2023-09-23T03:45:10.823Z,12.47
2023-09-23T03:48:12.523Z,12.57
2023-09-23T03:51:16.336Z,12.63
2023-09-23T03:54:18.372Z,12.73
2023-09-23T03:57:22.902Z,12.76
2023-09-23T04:00:25.081Z,12.79
2023-09-23T04:03:26.959Z,12.83
2023-09-23T04:06:30.138Z,12.80
2023-09-23T04:09:31.909Z,12.85
2023-09-23T04:12:35.229Z,12.69
2023-09-23T04:15:38.018Z,12.69
2023-09-23T04:18:39.798Z,12.57
2023-09-23T04:21:46.343Z,12.49
2023-09-23T04:24:48.640Z,12.40
2023-09-23T04:27:52.839Z,12.37
2023-09-23T04:30:55.014Z,12.20
2023-09-23T04:33:57.018Z,12.16
2023-09-23T04:36:59.041Z,12.22
2023-09-23T04:40:04.706Z,12.18
2023-09-23T04:43:07.994Z,12.31
2023-09-23T04:46:10.527Z,12.38
2023-09-23T04:49:13.910Z,12.37
2023-09-23T04:52:15.663Z,12.27
2023-09-23T04:55:17.865Z,12.28
2023-09-23T04:58:21.180Z,12.35
2023-09-23T05:01:24.289Z,12.35
2023-09-23T05:04:26.385Z,12.37
2023-09-23T05:07:28.363Z,12.34
2023-09-23T05:10:31.773Z,12.33
2023-09-23T05:13:36.236Z,12.29
2023-09-23T05:16:38.381Z,12.27
2023-09-23T05:19:41.591Z,12.22
2023-09-23T05:22:43.654Z,12.27
2023-09-23T05:25:45.764Z,12.16
2023-09-23T05:28:49.260Z,12.13
2023-09-23T05:31:51.338Z,12.09
2023-09-23T05:34:54.734Z,12.05
2023-09-23T05:37:56.569Z,12.03
2023-09-23T05:40:58.703Z,12.04
2023-09-23T05:44:01.854Z,11.92
2023-09-23T05:47:05.233Z,11.96
2023-09-23T05:50:09.122Z,12.05
2023-09-23T05:53:11.101Z,12.15
2023-09-23T05:56:13.414Z,12.25
2023-09-23T05:59:16.670Z,12.27
2023-09-23T06:02:21.732Z,12.17
2023-09-23T06:05:24.140Z,12.13
2023-09-23T06:08:27.060Z,11.98
2023-09-23T06:11:29.442Z,12.06
2023-09-23T06:14:32.535Z,12.04
2023-09-23T06:17:35.404Z,11.98
2023-09-23T06:20:37.222Z,12.07
2023-09-23T06:23:43.941Z,12.14
2023-09-23T06:26:46.007Z,12.13
2023-09-23T06:29:53.207Z,11.99
2023-09-23T06:32:55.194Z,12.02
2023-09-23T06:36:01.802Z,12.11
2023-09-23T06:39:05.049Z,12.12
2023-09-23T06:42:06.786Z,12.12
2023-09-23T06:45:11.319Z,12.14
2023-09-23T06:48:13.268Z,12.18
2023-09-23T06:51:16.980Z,12.19
2023-09-23T06:54:18.787Z,12.21
2023-09-23T06:57:21.293Z,12.06
2023-09-23T07:00:25.893Z,12.05
2023-09-23T07:03:29.131Z,11.87
2023-09-23T07:06:32.444Z,12.00
2023-09-23T07:09:34.434Z,11.93
2023-09-23T07:12:36.694Z,11.98
2023-09-23T07:15:42.278Z,12.02
2023-09-23T07:18:46.420Z,11.83
2023-09-23T07:21:48.482Z,11.88
2023-09-23T07:24:53.180Z,11.83
2023-09-23T07:28:00.057Z,11.81
2023-09-23T07:31:03.410Z,11.78
2023-09-23T07:34:08.515Z,11.80
2023-09-23T07:37:10.226Z,11.86
2023-09-23T07:40:12.372Z,12.02
2023-09-23T07:43:14.096Z,11.94
2023-09-23T07:46:18.461Z,11.87
2023-09-23T07:49:20.643Z,11.80
2023-09-23T07:52:23.404Z,11.65
2023-09-23T07:55:28.108Z,11.63
2023-09-23T07:58:29.993Z,11.42
2023-09-23T08:01:33.430Z,11.26
2023-09-23T08:04:36.425Z,11.12
2023-09-23T08:07:38.275Z,11.05
2023-09-23T08:10:45.605Z,10.90
2023-09-23T08:13:47.728Z,10.92
2023-09-23T08:16:51.748Z,10.79
2023-09-23T08:19:55.009Z,10.75
2023-09-23T08:22:59.027Z,10.88
2023-09-23T08:26:01.494Z,11.04
2023-09-23T08:29:06.358Z,11.15
2023-09-23T08:32:09.623Z,11.10
2023-09-23T08:35:12.797Z,10.98
2023-09-23T08:38:14.915Z,11.09
2023-09-23T08:41:24.549Z,11.03
2023-09-23T08:44:33.029Z,10.77
2023-09-23T08:47:38.444Z,10.84
2023-09-23T08:50:43.098Z,11.09
2023-09-23T08:53:47.004Z,11.31
2023-09-23T08:56:52.561Z,11.51
2023-09-23T08:59:54.406Z,11.65
2023-09-23T09:02:57.984Z,11.79
2023-09-23T09:06:01.371Z,11.81
2023-09-23T09:09:04.008Z,11.76
2023-09-23T09:12:07.317Z,11.85
2023-09-23T09:15:18.691Z,11.74
2023-09-23T09:18:22.551Z,11.81
2023-09-23T09:21:26.639Z,11.80
2023-09-23T09:24:28.600Z,11.95
2023-09-23T09:27:30.627Z,12.10
2023-09-23T09:30:33.499Z,12.13
2023-09-23T09:33:43.778Z,12.22
2023-09-23T09:36:45.739Z,12.13
2023-09-23T09:39:51.779Z,12.09
2023-09-23T09:42:55.388Z,12.08
2023-09-23T09:46:00.839Z,12.27
2023-09-23T09:49:05.280Z,12.16
2023-09-23T09:52:07.677Z,12.28
2023-09-23T09:55:15.825Z,12.33
2023-09-23T09:58:17.602Z,12.42
2023-09-23T10:01:23.359Z,12.51
2023-09-23T10:04:30.892Z,12.57
2023-09-23T10:07:55.143Z,12.46
2023-09-23T10:11:01.511Z,12.42
2023-09-23T10:14:23.384Z,12.52
2023-09-23T10:17:30.488Z,12.47
2023-09-23T10:20:40.851Z,12.46
2023-09-23T10:23:42.961Z,12.55
2023-09-23T10:26:49.063Z,12.46
2023-09-23T10:29:51.160Z,12.46
2023-09-23T10:32:53.079Z,12.44
2023-09-23T10:35:56.661Z,12.49
2023-09-23T10:39:00.339Z,12.36
2023-09-23T10:42:03.089Z,12.40
2023-09-23T10:45:06.380Z,12.46
2023-09-23T10:48:10.240Z,12.42
2023-09-23T10:51:14.822Z,12.45
2023-09-23T10:54:17.499Z,12.48
2023-09-23T10:57:21.229Z,12.56
2023-09-23T11:00:23.179Z,12.71
2023-09-23T11:03:25.113Z,12.81
2023-09-23T11:06:29.676Z,12.72
2023-09-23T11:09:31.478Z,12.73
2023-09-23T11:12:36.113Z,12.78
2023-09-23T11:15:38.227Z,12.78
2023-09-23T11:18:40.268Z,12.74
2023-09-23T11:21:45.110Z,12.76
2023-09-23T11:24:49.583Z,12.73
2023-09-23T11:27:53.484Z,12.77
2023-09-23T11:30:57.214Z,12.87
2023-09-23T11:33:59.648Z,12.87
2023-09-23T11:37:06.155Z,12.93
2023-09-23T11:40:09.974Z,13.03
2023-09-23T11:43:13.373Z,13.14
2023-09-23T11:46:18.263Z,13.30
2023-09-23T11:49:20.491Z,13.38
2023-09-23T11:52:23.562Z,13.25
2023-09-23T11:55:27.298Z,13.27
2023-09-23T11:58:29.683Z,13.26
2023-09-23T12:01:31.485Z,13.28
2023-09-23T12:04:35.038Z,13.15
2023-09-23T12:07:39.738Z,13.10
2023-09-23T12:10:41.584Z,12.94
2023-09-23T12:13:43.562Z,13.11
2023-09-23T12:16:46.110Z,13.20
2023-09-23T12:19:48.363Z,13.29
2023-09-23T12:22:51.522Z,13.31
2023-09-23T12:25:54.877Z,13.31
2023-09-23T12:28:56.977Z,13.26
2023-09-23T12:31:58.938Z,13.16
2023-09-23T12:35:03.905Z,13.36
2023-09-23T12:38:07.437Z,13.37
2023-09-23T12:41:09.525Z,13.27
2023-09-23T12:44:12.331Z,13.23
2023-09-23T12:47:14.598Z,12.97
2023-09-23T12:50:18.223Z,13.02
2023-09-23T12:53:21.482Z,13.13
2023-09-23T12:56:24.577Z,13.15
2023-09-23T12:59:26.849Z,13.18
2023-09-23T13:02:29.143Z,13.18
2023-09-23T13:05:32.122Z,13.28
2023-09-23T13:08:35.748Z,13.40
2023-09-23T13:11:38.182Z,13.47
2023-09-23T13:14:40.500Z,13.40
2023-09-23T13:17:45.140Z,13.42
2023-09-23T13:20:48.225Z,13.41
2023-09-23T13:23:53.269Z,13.25
2023-09-23T13:26:59.048Z,13.15
2023-09-23T13:30:03.864Z,12.91
2023-09-23T13:33:07.686Z,13.02
2023-09-23T13:36:11.484Z,13.11
2023-09-23T13:39:19.608Z,12.93
2023-09-23T13:42:22.979Z,12.87
2023-09-23T13:45:27.750Z,13.03
2023-09-23T13:48:33.651Z,13.23
2023-09-23T13:51:36.809Z,13.29
2023-09-23T13:54:42.719Z,13.54
2023-09-23T13:57:46.096Z,13.52
2023-09-23T14:00:49.867Z,13.60
2023-09-23T14:03:56.160Z,13.45
2023-09-23T14:06:59.616Z,13.60
2023-09-23T14:10:18.807Z,13.60
2023-09-23T14:13:26.656Z,13.51
2023-09-23T14:16:30.093Z,13.43
2023-09-23T14:19:33.837Z,13.39
2023-09-23T14:22:37.165Z,13.43
2023-09-23T14:25:43.241Z,13.39
2023-09-23T14:28:46.848Z,13.32
2023-09-23T14:31:50.899Z,13.27
2023-09-23T14:34:57.992Z,13.11
2023-09-23T14:38:02.962Z,13.01
2023-09-23T14:41:07.955Z,12.95
2023-09-23T14:44:12.464Z,12.99
2023-09-23T14:47:16.749Z,12.96
2023-09-23T14:50:21.049Z,13.12
2023-09-23T14:53:26.743Z,13.09
2023-09-23T14:56:32.576Z,13.10
2023-09-23T14:59:36.156Z,13.07
2023-09-23T15:02:41.595Z,13.20
2023-09-23T15:05:45.601Z,13.10
2023-09-23T15:08:59.874Z,13.21
2023-09-23T15:12:07.710Z,13.20
2023-09-23T15:15:12.332Z,13.27
2023-09-23T15:18:17.124Z,13.28
2023-09-23T15:21:20.551Z,13.37
2023-09-23T15:24:23.868Z,13.23
2023-09-23T15:27:29.385Z,13.17
2023-09-23T15:30:32.748Z,13.18
2023-09-23T15:33:36.668Z,13.24
2023-09-23T15:36:40.577Z,13.24
2023-09-23T15:39:45.305Z,13.32
2023-09-23T15:42:50.514Z,13.18
2023-09-23T15:46:00.026Z,13.52
2023-09-23T15:49:03.981Z,13.52
2023-09-23T15:52:07.930Z,13.59
2023-09-23T15:55:12.976Z,13.52
2023-09-23T15:58:18.888Z,13.46
2023-09-23T16:01:23.563Z,13.37
2023-09-23T16:04:27.667Z,13.39
2023-09-23T16:07:32.313Z,13.51
2023-09-23T16:10:36.195Z,13.47
2023-09-23T16:13:43.979Z,13.32
2023-09-23T16:16:49.526Z,13.43
2023-09-23T16:19:52.947Z,13.45
2023-09-23T16:22:56.325Z,13.42
2023-09-23T16:26:00.238Z,13.43
2023-09-23T16:29:06.591Z,13.38
2023-09-23T16:32:10.054Z,13.21
2023-09-23T16:35:14.952Z,13.28
2023-09-23T16:38:18.994Z,13.28
2023-09-23T16:41:22.966Z,13.22
2023-09-23T16:44:29.473Z,13.35
2023-09-23T16:47:34.234Z,13.27
2023-09-23T16:50:38.153Z,13.29
2023-09-23T16:53:42.771Z,13.30
2023-09-23T16:56:48.144Z,13.28
2023-09-23T16:59:54.598Z,13.30
2023-09-23T17:02:58.415Z,13.28
2023-09-23T17:06:02.345Z,13.39
2023-09-23T17:09:07.855Z,13.42
2023-09-23T17:12:12.409Z,13.46
2023-09-23T17:15:17.079Z,13.44
2023-09-23T17:18:21.751Z,13.46
2023-09-23T17:21:25.288Z,13.49
2023-09-23T17:24:29.041Z,13.21
2023-09-23T17:27:33.487Z,13.23
2023-09-23T17:30:40.291Z,13.21
2023-09-23T17:33:43.826Z,13.16
2023-09-23T17:36:48.712Z,12.92
2023-09-23T17:39:53.588Z,12.97
2023-09-23T17:42:57.508Z,12.95
2023-09-23T17:46:06.584Z,12.91
2023-09-23T17:49:10.624Z,12.92
2023-09-23T17:52:14.539Z,12.93
2023-09-23T17:55:21.196Z,13.00
2023-09-23T17:58:25.849Z,12.94
2023-09-23T18:01:31.385Z,12.88
2023-09-23T18:04:36.352Z,12.81
2023-09-23T18:07:41.136Z,12.75
2023-09-23T18:10:45.649Z,12.80
2023-09-23T18:13:49.944Z,12.78
2023-09-23T18:16:58.707Z,12.75
2023-09-23T18:20:04.362Z,12.81
2023-09-23T18:23:08.262Z,12.86
2023-09-23T18:26:16.152Z,12.87
2023-09-23T18:29:21.725Z,12.89
2023-09-23T18:32:31.199Z,12.93
2023-09-23T18:35:35.121Z,12.93
2023-09-23T18:38:41.515Z,12.92
2023-09-23T18:41:47.604Z,12.93
2023-09-23T18:44:54.564Z,12.93
2023-09-23T18:48:21.952Z,12.90
2023-09-23T18:51:25.740Z,12.90
2023-09-23T18:54:30.663Z,12.88
2023-09-23T18:57:34.451Z,12.92
2023-09-23T19:00:38.162Z,12.92
2023-09-23T19:03:44.074Z,12.92
2023-09-23T19:06:50.292Z,12.90
2023-09-23T19:09:55.044Z,12.92
2023-09-23T19:12:59.672Z,12.88
2023-09-23T19:16:03.911Z,12.84
2023-09-23T19:19:14.132Z,12.83
2023-09-23T19:22:18.285Z,12.82
2023-09-23T19:25:24.688Z,12.76
2023-09-23T19:28:32.642Z,12.69
2023-09-23T19:31:37.118Z,12.73
2023-09-23T19:34:43.733Z,12.72
2023-09-23T19:37:51.419Z,12.72
2023-09-23T19:40:55.033Z,12.77
2023-09-23T19:43:58.733Z,12.80
2023-09-23T19:47:03.334Z,12.76
2023-09-23T19:50:09.390Z,12.74
2023-09-23T19:53:13.245Z,12.76
2023-09-23T19:56:17.073Z,12.67
2023-09-23T19:59:20.828Z,12.56
2023-09-23T20:02:25.675Z,12.55
2023-09-23T20:05:31.140Z,12.58
2023-09-23T20:08:34.705Z,12.59
2023-09-23T20:11:39.529Z,12.61
2023-09-23T20:14:43.833Z,12.65
2023-09-23T20:17:50.621Z,12.62
2023-09-23T20:20:56.538Z,12.59
2023-09-23T20:24:00.217Z,12.58
2023-09-23T20:27:06.917Z,12.50
2023-09-23T20:30:11.027Z,12.55
2023-09-23T20:33:16.424Z,12.53
2023-09-23T20:36:22.590Z,12.47
2023-09-23T20:39:26.248Z,12.50
2023-09-23T20:42:29.935Z,12.47
2023-09-23T20:45:34.770Z,12.50
2023-09-23T20:48:38.317Z,12.47
2023-09-23T20:51:43.750Z,12.43
2023-09-23T20:54:48.755Z,12.41
2023-09-23T20:57:54.237Z,12.40
2023-09-23T21:00:56.281Z,12.42
2023-09-23T21:03:58.469Z,12.39
2023-09-23T21:07:01.954Z,12.36
2023-09-23T21:10:03.941Z,12.35
2023-09-23T21:13:05.753Z,12.21
2023-09-23T21:16:07.780Z,12.18
2023-09-23T21:19:09.844Z,12.17
2023-09-23T21:22:15.454Z,12.18
2023-09-23T21:25:17.300Z,12.15
2023-09-23T21:28:19.723Z,12.17
2023-09-23T21:31:22.214Z,12.12
2023-09-23T21:34:24.257Z,12.12
2023-09-23T21:37:27.447Z,12.12
2023-09-23T21:40:29.295Z,12.10
2023-09-23T21:43:34.845Z,12.01
2023-09-23T21:46:36.662Z,11.95
2023-09-23T21:49:41.159Z,11.88
2023-09-23T21:52:44.251Z,11.86
2023-09-23T21:55:46.006Z,11.89
2023-09-23T21:58:50.164Z,11.72
2023-09-23T22:01:51.989Z,11.73
2023-09-23T22:04:53.921Z,11.77
2023-09-23T22:07:58.342Z,11.85
2023-09-23T22:11:00.836Z,11.81
2023-09-23T22:14:03.389Z,11.83
2023-09-23T22:17:06.156Z,11.78
2023-09-23T22:20:09.035Z,11.75
2023-09-23T22:23:14.428Z,11.80
2023-09-23T22:26:16.492Z,11.80
2023-09-23T22:29:18.330Z,11.80
2023-09-23T22:32:20.360Z,11.73
2023-09-23T22:35:23.834Z,11.79
2023-09-23T22:38:33.587Z,11.82
2023-09-23T22:41:35.774Z,11.81
2023-09-23T22:44:41.004Z,11.82
2023-09-23T22:47:44.603Z,11.80
2023-09-23T22:50:46.728Z,11.81
2023-09-23T22:53:50.146Z,11.55
2023-09-23T22:56:52.336Z,11.65
2023-09-23T22:59:57.239Z,11.71
2023-09-23T23:02:59.335Z,11.75
2023-09-23T23:06:03.410Z,11.75
2023-09-23T23:09:09.532Z,11.77
2023-09-23T23:12:11.285Z,11.81
2023-09-23T23:15:13.880Z,11.67
2023-09-23T23:18:18.369Z,11.76
2023-09-23T23:21:20.208Z,11.80
2023-09-23T23:24:23.612Z,11.83
2023-09-23T23:27:25.392Z,11.72
2023-09-23T23:30:27.488Z,11.75
2023-09-23T23:33:29.727Z,11.71
2023-09-23T23:36:31.516Z,11.69
2023-09-23T23:39:38.433Z,11.75
2023-09-23T23:42:40.143Z,11.71
2023-09-23T23:45:41.975Z,11.67
2023-09-23T23:48:45.238Z,11.71
2023-09-23T23:51:47.022Z,11.74
2023-09-23T23:54:50.142Z,11.73
2023-09-23T23:57:52.608Z,11.72
